Change the Weather History Date:

Monday, December 10, 2012

  Actual Average (KCFV) Record (KCFV)
Temperature  
Mean Temperature 24 °F -  
Max Temperature 32 °F 46 °F 71 °F (1996)
Min Temperature 17 °F 27 °F 6 °F (2013)
Degree Days  
Heating Degree Days 40    
Moisture  
Dew Point 12 °F    
Average Humidity 58    
Maximum Humidity 68    
Minimum Humidity 41    
Precipitation  
Precipitation 0.00 in - - ()
Sea Level Pressure  
Sea Level Pressure 30.10 in    
Wind  
Wind Speed 12 mph (NW)    
Max Wind Speed 22 mph    
Max Gust Speed 28 mph    
Visibility 10 miles    
Events      
Averages and records for this station are not official NWS values.
T = Trace of Precipitation, MM = Missing Value Source: NWS Daily Summary

Daily Weather History Graph

Daily Weather History Graph

Search for Another Location

Airport or City:

Trip Planner

Search our weather history database for the weather conditions in past years. The results will help you decide how hot, cold, wet, or windy it might be!

Date:

Astronomy

Dec. 10, 2012 Rise Set
Actual Time 7:26 AM CST 5:06 PM CST
Civil Twilight 6:57 AM CST 5:35 PM CST
Nautical Twilight 6:24 AM CST 6:07 PM CST
Astronomical Twilight 5:53 AM CST 6:39 PM CST
Moon 4:13 AM CST (12/10) 2:54 PM CST (12/10)
Length of Visible Light 10h 37m
Length of Day
9h 39m
Waning Crescent, 10% of the Moon is Illuminated
Dec 10
Waning Crescent
Dec 13
New
Dec 19
First Quarter
Dec 28
Full
Jan 4
Last Quarter

Hourly Weather History & Observations

Time (CST) Temp. Windchill Dew Point Humidity Pressure Visibility Wind Dir Wind Speed Gust Speed Precip Events Conditions
12:15 AM 26.6 °F 13.8 °F 12.2 °F 55% 30.12 in 10.0 mi NNW 17.3 mph 25.3 mph N/A   Mostly Cloudy
12:35 AM 26.6 °F 12.4 °F 12.2 °F 55% 30.10 in 10.0 mi NNW 21.9 mph 27.6 mph N/A   Scattered Clouds
12:55 AM 26.6 °F 13.8 °F 12.2 °F 55% 30.11 in 10.0 mi NNW 17.3 mph 24.2 mph N/A   Scattered Clouds
1:15 AM 26.6 °F 15.2 °F 12.2 °F 55% 30.11 in 10.0 mi NNW 13.8 mph - N/A   Scattered Clouds
1:35 AM 26.6 °F 15.2 °F 12.2 °F 55% 30.11 in 10.0 mi NNW 13.8 mph 19.6 mph N/A   Scattered Clouds
1:55 AM 26.6 °F 14.7 °F 14.0 °F 59% 30.11 in 10.0 mi NNW 15.0 mph - N/A   Mostly Cloudy
2:15 AM 26.6 °F 14.7 °F 12.2 °F 55% 30.10 in 10.0 mi NNW 15.0 mph - N/A   Overcast
2:55 AM 26.6 °F 13.8 °F 12.2 °F 55% 30.12 in 10.0 mi NNW 17.3 mph - N/A   Mostly Cloudy
3:15 AM 24.8 °F 11.5 °F 12.2 °F 59% 30.11 in 10.0 mi NW 17.3 mph - N/A   Mostly Cloudy
3:35 AM 24.8 °F 11.5 °F 12.2 °F 59% 30.11 in 10.0 mi NNW 17.3 mph - N/A   Scattered Clouds
3:55 AM 24.8 °F 13.4 °F 14.0 °F 64% 30.11 in 10.0 mi NW 12.7 mph - N/A   Mostly Cloudy
4:15 AM 23.0 °F 10.1 °F 14.0 °F 68% 30.11 in 10.0 mi NW 15.0 mph 24.2 mph N/A   Overcast
4:35 AM 23.0 °F 9.2 °F 12.2 °F 63% 30.11 in 10.0 mi NNW 17.3 mph 24.2 mph N/A   Overcast
4:55 AM 23.0 °F 8.0 °F 12.2 °F 63% 30.12 in 10.0 mi NNW 20.7 mph 25.3 mph N/A   Overcast
5:15 AM 21.2 °F 6.8 °F 10.4 °F 63% 30.13 in 10.0 mi NNW 17.3 mph - N/A   Mostly Cloudy
5:35 AM 19.4 °F 5.0 °F 10.4 °F 68% 30.15 in 10.0 mi NW 16.1 mph 24.2 mph N/A   Scattered Clouds
5:55 AM 19.4 °F 7.2 °F 10.4 °F 68% 30.16 in 10.0 mi NNW 11.5 mph 21.9 mph N/A   Scattered Clouds
6:15 AM 19.4 °F 7.9 °F 10.4 °F 68% 30.17 in 10.0 mi NW 10.4 mph - N/A   Scattered Clouds
6:35 AM 17.6 °F 3.7 °F 8.6 °F 68% 30.16 in 10.0 mi NNW 13.8 mph - N/A   Clear
6:55 AM 17.6 °F 4.3 °F 8.6 °F 68% 30.16 in 10.0 mi NNW 12.7 mph - N/A   Clear
7:15 AM 17.6 °F 4.3 °F 8.6 °F 68% 30.16 in 10.0 mi NW 12.7 mph - N/A   Mostly Cloudy
7:35 AM 19.4 °F 6.6 °F 8.6 °F 63% 30.17 in 10.0 mi NW 12.7 mph - N/A   Overcast
7:55 AM 17.6 °F 2.7 °F 8.6 °F 68% 30.16 in 10.0 mi NW 16.1 mph - N/A   Overcast
8:35 AM 19.4 °F 7.9 °F 10.4 °F 68% 30.15 in 10.0 mi NNW 10.4 mph - N/A   Clear
8:55 AM 19.4 °F 7.9 °F 10.4 °F 68% 30.15 in 10.0 mi NNW 10.4 mph - N/A   Clear
9:15 AM 19.4 °F 8.6 °F 10.4 °F 68% 30.15 in 10.0 mi NNW 9.2 mph - N/A   Clear
9:35 AM 21.2 °F 10.1 °F 12.2 °F 68% 30.15 in 10.0 mi NNW 10.4 mph - N/A   Clear
9:55 AM 21.2 °F 12.6 °F 12.2 °F 68% 30.16 in 10.0 mi NW 6.9 mph - N/A   Clear
10:35 AM 23.0 °F 13.9 °F 12.2 °F 63% 30.16 in 10.0 mi NW 8.1 mph - N/A   Clear
10:55 AM 24.8 °F 15.3 °F 12.2 °F 59% 30.15 in 10.0 mi NW 9.2 mph - N/A   Clear
11:15 AM 26.6 °F 21.2 °F 12.2 °F 55% 30.15 in 10.0 mi NW 4.6 mph - N/A   Clear
11:35 AM 26.6 °F 17.5 °F 12.2 °F 55% 30.15 in 10.0 mi NW 9.2 mph - N/A   Clear
11:55 AM 28.4 °F 19.1 °F 14.0 °F 55% 30.14 in 10.0 mi WNW 10.4 mph - N/A   Clear
12:15 PM 30.2 °F 21.9 °F 14.0 °F 51% 30.12 in 10.0 mi North 9.2 mph - N/A   Clear
12:35 PM 30.2 °F 23.4 °F 15.8 °F 55% 30.11 in 10.0 mi NW 6.9 mph - N/A   Clear
12:55 PM 30.2 °F 23.4 °F 15.8 °F 55% 30.10 in 10.0 mi WNW 6.9 mph - N/A   Clear
1:15 PM 30.2 °F 24.3 °F 15.8 °F 55% 30.09 in 10.0 mi WNW 5.8 mph - N/A   Clear
1:35 PM 32.0 °F 25.6 °F 15.8 °F 51% 30.09 in 10.0 mi NNW 6.9 mph - N/A   Clear
1:55 PM 32.0 °F 24.8 °F 14.0 °F 48% 30.10 in 10.0 mi West 8.1 mph - N/A   Clear
2:15 PM 32.0 °F 25.6 °F 14.0 °F 48% 30.09 in 10.0 mi West 6.9 mph - N/A   Clear
2:35 PM 32.0 °F 27.5 °F 12.2 °F 44% 30.08 in 10.0 mi NW 4.6 mph - N/A   Clear
2:55 PM 32.0 °F 26.4 °F 12.2 °F 44% 30.07 in 10.0 mi West 5.8 mph - N/A   Clear
3:15 PM 32.0 °F 26.4 °F 12.2 °F 44% 30.06 in 10.0 mi WNW 5.8 mph - N/A   Clear
3:35 PM 32.0 °F 27.5 °F 12.2 °F 44% 30.06 in 10.0 mi WNW 4.6 mph - N/A   Clear
3:55 PM 32.0 °F 24.8 °F 12.2 °F 44% 30.06 in 10.0 mi WNW 8.1 mph - N/A   Clear
4:15 PM 32.0 °F 27.5 °F 10.4 °F 41% 30.06 in 10.0 mi NW 4.6 mph - N/A   Clear
4:35 PM 32.0 °F 26.4 °F 12.2 °F 44% 30.07 in 10.0 mi NW 5.8 mph - N/A   Clear
4:55 PM 32.0 °F 27.5 °F 12.2 °F 44% 30.07 in 10.0 mi WNW 4.6 mph - N/A   Clear
5:15 PM 32.0 °F - 12.2 °F 44% 30.06 in 10.0 mi Calm Calm - N/A   Clear
5:35 PM 30.2 °F - 10.4 °F 44% 30.06 in 10.0 mi Calm Calm - N/A   Clear
5:55 PM 28.4 °F 24.6 °F 10.4 °F 47% 30.06 in 10.0 mi South 3.5 mph - N/A   Clear
6:15 PM 28.4 °F 24.6 °F 10.4 °F 47% 30.06 in 10.0 mi SSW 3.5 mph - N/A   Clear
6:35 PM 26.6 °F 21.2 °F 10.4 °F 51% 30.07 in 10.0 mi South 4.6 mph - N/A   Clear
6:55 PM 24.8 °F 17.9 °F 10.4 °F 54% 30.06 in 10.0 mi South 5.8 mph - N/A   Clear
7:15 PM 23.0 °F 17.0 °F 10.4 °F 59% 30.07 in 10.0 mi South 4.6 mph - N/A   Clear
7:35 PM 23.0 °F 18.4 °F 10.4 °F 59% 30.07 in 10.0 mi South 3.5 mph - N/A   Clear
7:55 PM 23.0 °F - 12.2 °F 63% 30.07 in 10.0 mi Calm Calm - N/A   Clear
8:15 PM 23.0 °F - 12.2 °F 63% 30.07 in 10.0 mi Calm Calm - N/A   Clear
8:55 PM 23.0 °F - 10.4 °F 59% 30.08 in 10.0 mi Calm Calm - N/A   Clear
9:15 PM 21.2 °F 14.9 °F 12.2 °F 68% 30.08 in 10.0 mi SSW 4.6 mph - N/A   Clear
9:35 PM 23.0 °F - 10.4 °F 59% 30.07 in 10.0 mi Calm Calm - N/A   Clear
9:55 PM 21.2 °F - 10.4 °F 63% 30.07 in 10.0 mi Calm Calm - N/A   Clear
10:15 PM 23.0 °F - 10.4 °F 59% 30.07 in 10.0 mi Calm Calm - N/A   Clear
10:35 PM 23.0 °F 17.0 °F 10.4 °F 59% 30.07 in 10.0 mi South 4.6 mph - N/A   Clear
10:55 PM 21.2 °F 14.9 °F 10.4 °F 63% 30.07 in 10.0 mi South 4.6 mph - N/A   Clear
11:15 PM 21.2 °F 14.9 °F 10.4 °F 63% 30.08 in 10.0 mi South 4.6 mph - N/A   Clear
11:35 PM 21.2 °F 12.6 °F 10.4 °F 63% 30.07 in 10.0 mi South 6.9 mph - N/A   Clear
11:55 PM 21.2 °F 12.6 °F 10.4 °F 63% 30.08 in 10.0 mi South 6.9 mph - N/A   Clear